createdAt,value
2023-03-20T00:01:50.712Z,6.50
2023-03-20T00:04:37.540Z,7.30
2023-03-20T00:07:24.472Z,6.17
2023-03-20T00:10:13.216Z,6.83
2023-03-20T00:13:00.455Z,5.80
2023-03-20T00:15:47.341Z,5.43
2023-03-20T00:18:34.645Z,5.50
2023-03-20T00:21:21.508Z,5.27
2023-03-20T00:24:09.136Z,5.60
2023-03-20T00:26:57.460Z,5.53
2023-03-20T00:29:51.038Z,5.73
2023-03-20T00:32:37.686Z,5.73
2023-03-20T00:35:28.019Z,5.40
2023-03-20T00:38:14.873Z,6.03
2023-03-20T00:41:01.806Z,5.30
2023-03-20T00:43:52.853Z,5.43
2023-03-20T00:46:40.805Z,4.97
2023-03-20T00:49:40.002Z,5.57
2023-03-20T00:52:27.747Z,5.50
2023-03-20T00:55:14.620Z,5.10
2023-03-20T00:58:03.050Z,5.63
2023-03-20T01:00:51.354Z,5.40
2023-03-20T01:03:40.430Z,5.37
2023-03-20T01:06:29.021Z,5.13
2023-03-20T01:09:15.771Z,4.77
2023-03-20T01:12:04.019Z,5.30
2023-03-20T01:14:55.993Z,4.87
2023-03-20T01:17:44.863Z,4.90
2023-03-20T01:20:32.304Z,4.97
2023-03-20T01:23:19.161Z,4.90
2023-03-20T01:26:07.829Z,5.37
2023-03-20T01:28:55.095Z,5.17
2023-03-20T01:31:42.508Z,5.53
2023-03-20T01:34:30.459Z,5.30
2023-03-20T01:37:23.002Z,5.53
2023-03-20T01:40:18.362Z,5.17
2023-03-20T01:43:13.404Z,4.80
2023-03-20T01:46:03.924Z,5.07
2023-03-20T01:49:05.850Z,5.17
2023-03-20T01:51:54.439Z,5.10
2023-03-20T01:54:41.389Z,5.33
2023-03-20T01:57:31.150Z,5.37
2023-03-20T02:00:45.627Z,4.90
2023-03-20T02:03:38.921Z,4.83
2023-03-20T02:06:45.667Z,4.90
2023-03-20T02:09:37.919Z,4.83
2023-03-20T02:12:29.750Z,4.97
2023-03-20T02:15:24.925Z,5.07
2023-03-20T02:18:31.988Z,5.07
2023-03-20T02:21:55.012Z,4.70
2023-03-20T02:25:24.791Z,5.13
2023-03-20T02:28:35.501Z,4.90
2023-03-20T02:31:49.879Z,4.17
2023-03-20T02:35:10.039Z,4.73
2023-03-20T02:38:25.376Z,4.80
2023-03-20T02:41:20.894Z,4.93
2023-03-20T02:44:15.681Z,4.70
2023-03-20T02:47:07.304Z,4.57
2023-03-20T02:50:01.025Z,4.97
2023-03-20T02:52:52.910Z,5.30
2023-03-20T02:55:44.902Z,5.00
2023-03-20T02:58:39.595Z,5.03
2023-03-20T03:01:33.295Z,4.67
2023-03-20T03:04:23.994Z,4.90
2023-03-20T03:07:16.196Z,5.00
2023-03-20T03:10:06.930Z,4.63
2023-03-20T03:12:58.592Z,4.97
2023-03-20T03:15:48.708Z,5.03
2023-03-20T03:18:38.766Z,4.70
2023-03-20T03:21:27.034Z,4.70
2023-03-20T03:24:39.970Z,4.57
2023-03-20T03:27:31.231Z,4.87
2023-03-20T03:30:26.086Z,4.30
2023-03-20T03:33:20.571Z,5.23
2023-03-20T03:36:18.429Z,4.43
2023-03-20T03:39:12.958Z,4.77
2023-03-20T03:42:06.922Z,5.53
2023-03-20T03:44:59.605Z,5.00
2023-03-20T03:47:52.244Z,4.63
2023-03-20T03:50:48.459Z,5.07
2023-03-20T03:53:41.240Z,4.80
2023-03-20T03:56:32.740Z,5.63
2023-03-20T03:59:24.249Z,5.13
2023-03-20T04:02:11.975Z,4.93
2023-03-20T04:05:03.282Z,4.53
2023-03-20T04:07:55.459Z,5.00
2023-03-20T04:10:42.290Z,5.30
2023-03-20T04:13:29.234Z,4.60
2023-03-20T04:16:17.863Z,4.73
2023-03-20T04:19:04.402Z,5.43
2023-03-20T04:21:52.943Z,5.50
2023-03-20T04:24:40.300Z,5.10
2023-03-20T04:27:26.864Z,5.20
2023-03-20T04:30:14.564Z,5.57
2023-03-20T04:33:20.129Z,5.87
2023-03-20T04:36:27.043Z,5.10
2023-03-20T04:39:16.601Z,5.70
2023-03-20T04:42:03.240Z,5.57
2023-03-20T04:44:50.198Z,6.47
2023-03-20T04:47:37.581Z,5.33
2023-03-20T04:50:24.870Z,5.80
2023-03-20T04:53:12.369Z,5.37
2023-03-20T04:56:02.050Z,6.03
2023-03-20T04:58:51.171Z,6.07
2023-03-20T05:01:40.910Z,5.87
2023-03-20T05:04:28.218Z,6.10
2023-03-20T05:07:14.943Z,5.50
2023-03-20T05:10:16.925Z,6.07
2023-03-20T05:13:12.881Z,5.30
2023-03-20T05:16:26.165Z,6.07
2023-03-20T05:19:21.564Z,5.40
2023-03-20T05:22:30.920Z,5.83
2023-03-20T05:25:48.157Z,5.73
2023-03-20T05:28:54.624Z,6.33
2023-03-20T05:31:59.788Z,5.87
2023-03-20T05:35:10.265Z,5.73
2023-03-20T05:38:09.726Z,5.47
2023-03-20T05:41:19.797Z,5.67
2023-03-20T05:44:25.589Z,6.27
2023-03-20T05:47:33.238Z,6.60
2023-03-20T05:50:37.867Z,6.83
2023-03-20T05:53:45.821Z,7.30
2023-03-20T05:56:43.721Z,6.70
2023-03-20T05:59:53.754Z,7.13
2023-03-20T06:02:59.432Z,6.60
2023-03-20T06:06:10.052Z,7.53
2023-03-20T06:08:57.149Z,7.43
2023-03-20T06:11:43.712Z,7.43
2023-03-20T06:14:30.977Z,7.73
2023-03-20T06:17:23.585Z,8.27
2023-03-20T06:20:17.132Z,8.47
2023-03-20T06:23:03.596Z,8.53
2023-03-20T06:25:51.490Z,8.27
2023-03-20T06:28:40.037Z,8.40
2023-03-20T06:31:28.983Z,8.90
2023-03-20T06:34:17.091Z,9.50
2023-03-20T06:37:06.200Z,9.20
2023-03-20T06:39:52.809Z,11.13
2023-03-20T06:42:39.746Z,11.93
2023-03-20T06:45:28.037Z,11.27
2023-03-20T06:48:25.015Z,12.13
2023-03-20T06:51:13.500Z,11.73
2023-03-20T06:54:09.330Z,12.67
2023-03-20T06:56:56.182Z,12.77
2023-03-20T06:59:42.593Z,12.67
2023-03-20T07:02:29.482Z,14.90
2023-03-20T07:05:17.691Z,14.93
2023-03-20T07:08:07.454Z,16.33
2023-03-20T07:10:55.095Z,15.43
2023-03-20T07:13:41.810Z,15.33
2023-03-20T07:16:43.798Z,15.33
2023-03-20T07:19:31.574Z,16.20
2023-03-20T07:22:23.663Z,14.93
2023-03-20T07:25:13.490Z,16.00
2023-03-20T07:28:00.564Z,16.10
2023-03-20T07:30:48.313Z,13.77
2023-03-20T07:33:37.082Z,15.27
2023-03-20T07:36:23.994Z,15.63
2023-03-20T07:39:12.360Z,14.87
2023-03-20T07:42:03.932Z,15.43
2023-03-20T07:45:18.362Z,16.93
2023-03-20T07:48:05.139Z,16.27
2023-03-20T07:50:52.681Z,14.70
2023-03-20T07:53:39.500Z,15.37
2023-03-20T07:56:26.448Z,14.57
2023-03-20T07:59:14.871Z,14.83
2023-03-20T08:02:01.706Z,15.13
2023-03-20T08:04:48.681Z,14.67
2023-03-20T08:07:36.127Z,14.97
2023-03-20T08:10:23.255Z,15.40
2023-03-20T08:13:10.042Z,13.43
2023-03-20T08:15:58.320Z,13.77
2023-03-20T08:18:44.937Z,13.37
2023-03-20T08:21:32.829Z,13.67
2023-03-20T08:24:19.471Z,14.17
2023-03-20T08:27:06.405Z,14.23
2023-03-20T08:29:53.348Z,13.50
2023-03-20T08:32:41.571Z,12.67
2023-03-20T08:35:33.273Z,11.73
2023-03-20T08:38:20.665Z,12.70
2023-03-20T08:41:08.502Z,12.50
2023-03-20T08:43:54.901Z,12.67
2023-03-20T08:46:43.806Z,13.60
2023-03-20T08:49:32.153Z,12.27
2023-03-20T08:52:18.573Z,11.77
2023-03-20T08:55:08.074Z,12.77
2023-03-20T08:57:57.455Z,11.13
2023-03-20T09:00:44.845Z,12.40
2023-03-20T09:03:32.011Z,11.33
2023-03-20T09:06:20.732Z,12.63
2023-03-20T09:09:07.436Z,11.90
2023-03-20T09:11:55.039Z,11.10
2023-03-20T09:14:41.946Z,11.67
2023-03-20T09:17:28.725Z,9.17
2023-03-20T09:20:15.800Z,11.73
2023-03-20T09:23:03.858Z,9.77
2023-03-20T09:25:50.705Z,10.77
2023-03-20T09:28:37.387Z,10.37
2023-03-20T09:31:24.345Z,10.40
2023-03-20T09:34:11.136Z,9.93
2023-03-20T09:36:57.739Z,9.57
2023-03-20T09:39:46.046Z,10.23
2023-03-20T09:42:43.617Z,10.63
2023-03-20T09:45:41.939Z,10.10
2023-03-20T09:48:36.498Z,9.87
2023-03-20T09:51:33.868Z,9.97
2023-03-20T09:54:27.002Z,9.53
2023-03-20T09:57:21.698Z,9.30
2023-03-20T10:00:13.876Z,9.87
2023-03-20T10:03:02.739Z,9.53
2023-03-20T10:05:56.052Z,11.10
2023-03-20T10:08:43.144Z,9.93
2023-03-20T10:11:51.720Z,9.63
2023-03-20T10:14:52.902Z,9.67
2023-03-20T10:17:52.448Z,9.43
2023-03-20T10:20:44.104Z,9.07
2023-03-20T10:23:37.436Z,9.10
2023-03-20T10:26:25.531Z,8.97
2023-03-20T10:29:25.630Z,9.57
2023-03-20T10:32:24.253Z,8.83
2023-03-20T10:35:22.433Z,8.63
2023-03-20T10:38:25.990Z,9.43
2023-03-20T10:41:17.706Z,7.57
2023-03-20T10:44:06.930Z,8.10
2023-03-20T10:46:57.794Z,7.07
2023-03-20T10:49:51.698Z,7.87
2023-03-20T10:52:42.464Z,7.43
2023-03-20T10:55:32.977Z,6.47
2023-03-20T10:58:23.703Z,6.07
2023-03-20T11:01:11.021Z,6.47
2023-03-20T11:03:57.530Z,5.43
2023-03-20T11:06:53.715Z,4.97
2023-03-20T11:09:40.582Z,5.33
2023-03-20T11:12:34.957Z,4.80
2023-03-20T11:15:25.517Z,4.20
2023-03-20T11:18:15.042Z,4.23
2023-03-20T11:21:03.229Z,4.70
2023-03-20T11:23:51.736Z,4.30
2023-03-20T11:26:41.494Z,3.93
2023-03-20T11:29:35.117Z,4.33
2023-03-20T11:32:29.181Z,4.57
2023-03-20T11:35:22.556Z,4.30
2023-03-20T11:38:14.566Z,4.63
2023-03-20T11:41:06.487Z,4.40
2023-03-20T11:43:53.143Z,4.37
2023-03-20T11:46:39.863Z,4.53
2023-03-20T11:49:29.372Z,4.37
2023-03-20T11:52:21.539Z,3.40
2023-03-20T11:55:24.861Z,4.20
2023-03-20T11:58:17.774Z,4.00
2023-03-20T12:01:05.531Z,3.70
2023-03-20T12:03:55.669Z,4.27
2023-03-20T12:06:50.142Z,3.87
2023-03-20T12:09:43.650Z,3.90
2023-03-20T12:12:41.158Z,4.37
2023-03-20T12:15:33.003Z,4.00
2023-03-20T12:18:26.233Z,4.27
2023-03-20T12:21:18.119Z,4.17
2023-03-20T12:24:13.117Z,3.80
2023-03-20T12:27:16.722Z,4.17
2023-03-20T12:30:11.687Z,4.50
2023-03-20T12:33:05.442Z,4.63
2023-03-20T12:35:55.621Z,5.63
2023-03-20T12:38:43.508Z,4.27
2023-03-20T12:41:36.485Z,4.50
2023-03-20T12:44:32.019Z,4.50
2023-03-20T12:47:43.285Z,5.23
2023-03-20T12:50:36.531Z,4.83
2023-03-20T12:53:36.861Z,4.40
2023-03-20T12:56:33.042Z,4.73
2023-03-20T12:59:28.196Z,4.80
2023-03-20T13:02:29.789Z,4.83
2023-03-20T13:05:32.441Z,4.77
2023-03-20T13:08:37.457Z,4.77
2023-03-20T13:11:32.481Z,5.50
2023-03-20T13:14:28.619Z,5.00
2023-03-20T13:17:23.475Z,5.67
2023-03-20T13:20:25.202Z,5.17
2023-03-20T13:23:20.787Z,5.93
2023-03-20T13:26:27.850Z,5.53
2023-03-20T13:29:27.467Z,5.13
2023-03-20T13:32:26.330Z,4.73
2023-03-20T13:35:37.128Z,4.47
2023-03-20T13:38:25.825Z,6.00
2023-03-20T13:41:15.866Z,6.00
2023-03-20T13:44:05.852Z,4.93
2023-03-20T13:46:56.449Z,5.30
2023-03-20T13:49:54.512Z,5.40
2023-03-20T13:52:46.037Z,5.03
2023-03-20T13:55:42.459Z,4.90
2023-03-20T13:58:44.202Z,5.30
2023-03-20T14:01:43.477Z,5.00
2023-03-20T14:04:31.971Z,5.30
2023-03-20T14:07:31.361Z,5.00
2023-03-20T14:10:38.050Z,5.30
2023-03-20T14:13:27.919Z,4.83
2023-03-20T14:16:19.852Z,4.60
2023-03-20T14:19:12.193Z,5.17
2023-03-20T14:22:00.497Z,4.60
2023-03-20T14:24:54.997Z,4.03
2023-03-20T14:27:55.576Z,4.63
2023-03-20T14:30:44.644Z,4.63
2023-03-20T14:33:32.851Z,5.00
2023-03-20T14:36:21.982Z,5.50
2023-03-20T14:39:17.021Z,5.03
2023-03-20T14:42:24.864Z,5.47
2023-03-20T14:45:31.627Z,5.50
2023-03-20T14:48:29.701Z,5.13
2023-03-20T14:51:25.681Z,5.93
2023-03-20T14:54:27.754Z,5.07
2023-03-20T14:57:21.233Z,4.97
2023-03-20T15:00:19.644Z,5.93
2023-03-20T15:03:09.251Z,4.83
2023-03-20T15:05:58.838Z,5.57
2023-03-20T15:08:50.909Z,5.80
2023-03-20T15:11:38.251Z,5.10
2023-03-20T15:14:28.464Z,5.70
2023-03-20T15:17:22.341Z,5.60
2023-03-20T15:20:16.688Z,5.37
2023-03-20T15:23:05.095Z,5.60
2023-03-20T15:25:53.482Z,5.80
2023-03-20T15:28:40.494Z,5.63
2023-03-20T15:31:29.958Z,6.77
2023-03-20T15:34:22.241Z,5.87
2023-03-20T15:37:15.384Z,6.10
2023-03-20T15:40:13.514Z,6.97
2023-03-20T15:43:05.580Z,6.63
2023-03-20T15:46:02.906Z,6.60
2023-03-20T15:48:53.386Z,6.70
2023-03-20T15:51:40.544Z,6.77
2023-03-20T15:54:27.367Z,7.00
2023-03-20T15:57:20.690Z,6.80
2023-03-20T16:00:16.890Z,6.40
2023-03-20T16:03:08.040Z,6.73
2023-03-20T16:05:55.926Z,7.27
2023-03-20T16:08:42.656Z,6.60
2023-03-20T16:11:38.577Z,6.80
2023-03-20T16:14:27.432Z,6.23
2023-03-20T16:17:17.553Z,6.43
2023-03-20T16:20:04.975Z,6.80
2023-03-20T16:22:53.722Z,6.70
2023-03-20T16:25:40.506Z,6.40
2023-03-20T16:28:28.189Z,7.20
2023-03-20T16:31:19.198Z,6.97
2023-03-20T16:34:09.235Z,7.00
2023-03-20T16:36:59.156Z,6.90
2023-03-20T16:39:45.925Z,6.97
2023-03-20T16:42:33.834Z,6.77
2023-03-20T16:45:27.731Z,6.50
2023-03-20T16:48:32.977Z,5.77
2023-03-20T16:51:24.436Z,7.00
2023-03-20T16:54:21.058Z,7.77
2023-03-20T16:57:11.248Z,6.67
2023-03-20T17:00:02.381Z,7.83
2023-03-20T17:02:53.140Z,7.37
2023-03-20T17:05:49.181Z,7.80
2023-03-20T17:08:41.442Z,6.27
2023-03-20T17:11:31.283Z,7.10
2023-03-20T17:14:18.491Z,7.23
2023-03-20T17:17:05.502Z,7.43
2023-03-20T17:19:53.208Z,6.93
2023-03-20T17:22:39.552Z,7.37
2023-03-20T17:25:27.928Z,6.73
2023-03-20T17:28:21.476Z,6.90
2023-03-20T17:31:10.490Z,7.07
2023-03-20T17:33:57.382Z,7.07
2023-03-20T17:36:44.175Z,6.93
2023-03-20T17:39:31.527Z,7.10
2023-03-20T17:42:21.461Z,6.53
2023-03-20T17:45:10.694Z,7.23
2023-03-20T17:47:57.178Z,6.80
2023-03-20T17:50:45.193Z,7.47
2023-03-20T17:53:31.814Z,7.07
2023-03-20T17:56:18.485Z,7.20
2023-03-20T17:59:07.283Z,7.23
2023-03-20T18:01:53.987Z,7.83
2023-03-20T18:04:40.870Z,6.70
2023-03-20T18:07:27.776Z,6.70
2023-03-20T18:10:21.722Z,8.13
2023-03-20T18:13:08.480Z,6.80
2023-03-20T18:15:58.840Z,6.50
2023-03-20T18:18:45.481Z,6.90
2023-03-20T18:21:32.282Z,6.50
2023-03-20T18:24:19.070Z,6.70
2023-03-20T18:27:05.921Z,7.03
2023-03-20T18:29:52.520Z,6.87
2023-03-20T18:32:40.911Z,6.60
2023-03-20T18:35:27.525Z,6.57
2023-03-20T18:38:14.777Z,6.07
2023-03-20T18:41:01.532Z,7.00
2023-03-20T18:43:48.543Z,7.57
2023-03-20T18:46:35.207Z,6.33
2023-03-20T18:49:23.234Z,6.87
2023-03-20T18:52:11.528Z,6.13
2023-03-20T18:54:58.214Z,6.03
2023-03-20T18:57:51.653Z,6.40
2023-03-20T19:00:52.326Z,6.37
2023-03-20T19:03:48.044Z,6.77
2023-03-20T19:06:46.345Z,6.17
2023-03-20T19:09:37.888Z,5.90
2023-03-20T19:12:27.560Z,5.83
2023-03-20T19:15:17.433Z,6.07
2023-03-20T19:18:12.025Z,5.70
2023-03-20T19:21:14.192Z,6.93
2023-03-20T19:24:09.134Z,6.90
2023-03-20T19:26:58.427Z,6.27
2023-03-20T19:29:47.410Z,7.43
2023-03-20T19:32:36.513Z,6.17
2023-03-20T19:36:01.210Z,6.33
2023-03-20T19:38:34.850Z,7.37
2023-03-20T19:41:23.794Z,6.83
2023-03-20T19:44:11.448Z,7.17
2023-03-20T19:46:58.933Z,6.30
2023-03-20T19:49:45.628Z,6.33
2023-03-20T19:52:36.890Z,6.80
2023-03-20T19:55:24.059Z,7.17
2023-03-20T19:58:12.665Z,7.20
2023-03-20T20:01:00.077Z,6.80
2023-03-20T20:03:47.471Z,6.53
2023-03-20T20:06:34.368Z,7.27
2023-03-20T20:09:21.062Z,7.17
2023-03-20T20:12:08.556Z,7.73
2023-03-20T20:14:56.547Z,7.50
2023-03-20T20:17:43.805Z,7.33
2023-03-20T20:20:34.488Z,7.20
2023-03-20T20:23:24.450Z,7.30
2023-03-20T20:26:11.020Z,6.60
2023-03-20T20:28:57.924Z,7.30
2023-03-20T20:31:46.278Z,7.50
2023-03-20T20:38:28.261Z,7.07
2023-03-20T20:40:49.727Z,7.37
2023-03-20T20:44:11.539Z,7.37
2023-03-20T20:46:43.030Z,7.33
2023-03-20T20:49:31.484Z,7.70
2023-03-20T20:52:18.076Z,6.80
2023-03-20T20:55:21.779Z,6.40
2023-03-20T20:58:09.127Z,7.67
2023-03-20T21:00:57.825Z,7.53
2023-03-20T21:03:44.653Z,6.50
2023-03-20T21:07:03.561Z,6.67
2023-03-20T21:09:39.766Z,7.23
2023-03-20T21:12:35.033Z,6.70
2023-03-20T21:15:26.717Z,6.33
2023-03-20T21:18:13.613Z,6.53
2023-03-20T21:21:05.386Z,6.53
2023-03-20T21:23:53.615Z,6.73
2023-03-20T21:26:40.141Z,6.17
2023-03-20T21:29:27.327Z,6.87
2023-03-20T21:32:16.439Z,7.13
2023-03-20T21:35:06.094Z,6.90
2023-03-20T21:41:07.767Z,6.63
2023-03-20T21:43:54.576Z,6.47
2023-03-20T21:47:09.662Z,6.33
2023-03-20T21:50:37.153Z,5.93
2023-03-20T21:53:28.730Z,6.37
2023-03-20T21:56:45.672Z,6.17
2023-03-20T22:02:23.567Z,5.97
2023-03-20T22:09:18.527Z,5.50
2023-03-20T22:15:20.123Z,5.57
2023-03-20T22:18:19.200Z,5.27
2023-03-20T22:34:16.227Z,5.63
2023-03-20T22:37:23.120Z,5.80
2023-03-20T22:40:29.219Z,5.90
2023-03-20T22:46:03.203Z,5.80
2023-03-20T22:48:52.278Z,5.47
2023-03-20T22:51:52.239Z,4.93
2023-03-20T22:54:45.408Z,5.20
2023-03-20T22:57:42.404Z,5.63
2023-03-20T23:00:36.304Z,5.67
2023-03-20T23:03:38.147Z,5.30
2023-03-20T23:06:28.522Z,5.00
2023-03-20T23:09:16.001Z,5.33
2023-03-20T23:12:02.914Z,5.40
2023-03-20T23:14:49.381Z,5.20
2023-03-20T23:17:37.540Z,5.50
2023-03-20T23:20:24.416Z,5.30
2023-03-20T23:23:11.337Z,5.13
2023-03-20T23:26:06.523Z,5.13
2023-03-20T23:28:53.817Z,5.47
2023-03-20T23:31:40.741Z,6.13
2023-03-20T23:34:28.863Z,4.87
2023-03-20T23:37:15.732Z,5.50
2023-03-20T23:40:02.470Z,5.87
2023-03-20T23:42:49.254Z,5.97
2023-03-20T23:45:36.435Z,5.90
2023-03-20T23:48:23.568Z,5.63
2023-03-20T23:51:11.712Z,5.27
2023-03-20T23:53:58.476Z,5.97
2023-03-20T23:56:45.276Z,5.97
2023-03-20T23:59:32.013Z,5.03
